Time;durP1;ratioP1;P1;durP2;ratioP2;P2;SDS_P1;SDS_P2;PMS_P1;PMS_P2;Temp;Humidity;BMP_temperature;BMP_pressure;BME280_temperature;BME280_humidity;BME280_pressure;Samples;Min_cycle;Max_cycle;Signal;HPM_P1;HPM_P2
2022/03/04 00:00:12;;;;;;;0.73;0.73;;;;;;;;;;4954706;28;20235;-76
2022/03/04 00:02:40;;;;;;;0.00;0.00;;;;;;;;;;4955314;28;20605;-76
2022/03/04 00:05:09;;;;;;;0.00;0.00;;;;;;;;;;4954476;28;20218;-75
2022/03/04 00:07:36;;;;;;;0.17;0.17;;;;;;;;;;4954204;28;20222;-77
2022/03/04 00:10:04;;;;;;;1.13;0.93;;;;;;;;;;4953932;28;20209;-76
2022/03/04 00:12:32;;;;;;;1.50;0.83;;;;;;;;;;4954900;29;20206;-76
2022/03/04 00:14:59;;;;;;;2.43;1.90;;;;;;;;;;4955322;28;20242;-76
2022/03/04 00:17:26;;;;;;;1.00;0.90;;;;;;;;;;4954551;28;20203;-76
2022/03/04 00:19:54;;;;;;;0.53;0.30;;;;;;;;;;4961523;28;20213;-74
2022/03/04 00:22:23;;;;;;;0.13;0.13;;;;;;;;;;4957523;29;20238;-75
2022/03/04 00:24:51;;;;;;;0.67;0.30;;;;;;;;;;4952443;28;21226;-74
2022/03/04 00:27:18;;;;;;;3.40;1.50;;;;;;;;;;4954492;28;20203;-75
2022/03/04 00:29:45;;;;;;;0.77;0.77;;;;;;;;;;4953472;28;20205;-74
2022/03/04 00:32:13;;;;;;;1.10;1.07;;;;;;;;;;4953431;29;20277;-75
2022/03/04 00:34:42;;;;;;;0.10;0.10;;;;;;;;;;4953702;28;20274;-76
2022/03/04 00:37:10;;;;;;;0.00;0.00;;;;;;;;;;4948118;28;20206;-75
2022/03/04 00:39:38;;;;;;;0.93;0.27;;;;;;;;;;4954278;28;20206;-76
2022/03/04 00:42:06;;;;;;;2.03;1.37;;;;;;;;;;4953698;28;20199;-76
2022/03/04 00:44:34;;;;;;;0.27;0.27;;;;;;;;;;4954932;28;20600;-75
2022/03/04 00:47:01;;;;;;;0.00;0.00;;;;;;;;;;4938503;28;20219;-75
2022/03/04 00:49:29;;;;;;;0.00;0.00;;;;;;;;;;4954431;28;20207;-76
2022/03/04 00:51:56;;;;;;;0.30;0.30;;;;;;;;;;4954123;28;20206;-76
2022/03/04 00:54:24;;;;;;;0.00;0.00;;;;;;;;;;4952696;28;20231;-77
2022/03/04 00:56:52;;;;;;;0.00;0.00;;;;;;;;;;4954882;28;20214;-76
2022/03/04 00:59:20;;;;;;;3.30;2.13;;;;;;;;;;4955376;29;20203;-76
2022/03/04 01:01:48;;;;;;;0.00;0.00;;;;;;;;;;4952667;28;20211;-72
2022/03/04 01:04:15;;;;;;;0.27;0.20;;;;;;;;;;4954181;28;20191;-76
2022/03/04 01:06:43;;;;;;;0.00;0.00;;;;;;;;;;4953851;28;20233;-76
2022/03/04 01:09:10;;;;;;;0.00;0.00;;;;;;;;;;4954202;28;20203;-77
2022/03/04 01:11:38;;;;;;;0.00;0.00;;;;;;;;;;4953244;28;20211;-75
2022/03/04 01:14:08;;;;;;;0.00;0.00;;;;;;;;;;4953223;28;20575;-76
2022/03/04 01:16:35;;;;;;;0.30;0.30;;;;;;;;;;4952595;29;20195;-76
2022/03/04 01:19:03;;;;;;;0.00;0.00;;;;;;;;;;4954387;28;20265;-76
2022/03/04 01:21:30;;;;;;;0.00;0.00;;;;;;;;;;4952722;28;20207;-75
2022/03/04 01:23:57;;;;;;;0.00;0.00;;;;;;;;;;4951926;28;20669;-75
2022/03/04 01:26:25;;;;;;;0.00;0.00;;;;;;;;;;4954231;29;20229;-75
2022/03/04 01:28:52;;;;;;;0.27;0.27;;;;;;;;;;4950197;29;20207;-74
2022/03/04 01:31:21;;;;;;;0.00;0.00;;;;;;;;;;4951362;28;20211;-75
2022/03/04 01:33:49;;;;;;;0.00;0.00;;;;;;;;;;4954208;28;20982;-75
2022/03/04 01:36:16;;;;;;;0.00;0.00;;;;;;;;;;4954741;29;20254;-76
2022/03/04 01:38:44;;;;;;;0.07;0.07;;;;;;;;;;4954400;28;20199;-75
2022/03/04 01:41:11;;;;;;;0.17;0.17;;;;;;;;;;4954493;28;20205;-76
2022/03/04 01:43:39;;;;;;;0.00;0.00;;;;;;;;;;4954536;28;20203;-74
2022/03/04 01:46:12;;;;;;;0.00;0.00;;;;;;;;;;4953448;28;20238;-76
2022/03/04 01:48:41;;;;;;;0.10;0.10;;;;;;;;;;4952770;28;20207;-73
2022/03/04 01:51:09;;;;;;;0.00;0.00;;;;;;;;;;4935314;29;20211;-75
2022/03/04 01:53:36;;;;;;;0.00;0.00;;;;;;;;;;4951508;29;20242;-76
2022/03/04 01:56:04;;;;;;;0.10;0.10;;;;;;;;;;4954309;29;20205;-76
2022/03/04 01:58:32;;;;;;;0.53;0.33;;;;;;;;;;4954512;29;20195;-76
2022/03/04 02:00:59;;;;;;;0.00;0.00;;;;;;;;;;4946609;28;20207;-75
2022/03/04 02:03:27;;;;;;;0.07;0.07;;;;;;;;;;4949523;28;20207;-75
2022/03/04 02:05:56;;;;;;;0.50;0.27;;;;;;;;;;4954190;29;20234;-75
2022/03/04 02:08:23;;;;;;;0.77;0.77;;;;;;;;;;4953734;28;20199;-75
2022/03/04 02:10:50;;;;;;;0.00;0.00;;;;;;;;;;4953890;29;20668;-76
2022/03/04 02:13:19;;;;;;;0.33;0.33;;;;;;;;;;4947700;29;20203;-75
2022/03/04 02:15:46;;;;;;;0.00;0.00;;;;;;;;;;4951211;29;20222;-73
2022/03/04 02:18:14;;;;;;;0.00;0.00;;;;;;;;;;4952295;28;20203;-77
2022/03/04 02:20:43;;;;;;;1.67;1.33;;;;;;;;;;4954004;28;20210;-76
2022/03/04 02:23:13;;;;;;;0.20;0.20;;;;;;;;;;4951237;28;20230;-75
2022/03/04 02:25:42;;;;;;;0.40;0.20;;;;;;;;;;4953417;29;20230;-76
2022/03/04 02:28:09;;;;;;;1.83;1.77;;;;;;;;;;4952371;28;20233;-73
2022/03/04 02:30:37;;;;;;;0.00;0.00;;;;;;;;;;4953974;29;20218;-75
2022/03/04 02:33:05;;;;;;;0.00;0.00;;;;;;;;;;4953504;29;20727;-77
2022/03/04 02:35:34;;;;;;;1.30;0.53;;;;;;;;;;4951412;28;20215;-71
2022/03/04 02:38:01;;;;;;;0.00;0.00;;;;;;;;;;4954235;28;20570;-75
2022/03/04 02:40:30;;;;;;;0.00;0.00;;;;;;;;;;4953128;28;20195;-73
2022/03/04 02:42:57;;;;;;;0.00;0.00;;;;;;;;;;4953641;29;20258;-73
2022/03/04 02:45:25;;;;;;;0.00;0.00;;;;;;;;;;4953298;29;20203;-74
2022/03/04 02:47:52;;;;;;;0.87;0.87;;;;;;;;;;4952851;28;20207;-73
2022/03/04 02:50:20;;;;;;;3.00;2.67;;;;;;;;;;4948975;28;20494;-75
2022/03/04 02:52:48;;;;;;;0.50;0.50;;;;;;;;;;4953019;28;20210;-74
2022/03/04 02:55:15;;;;;;;2.73;1.40;;;;;;;;;;4953280;29;20227;-75
2022/03/04 02:57:45;;;;;;;0.00;0.00;;;;;;;;;;4951340;28;20203;-76
2022/03/04 03:00:14;;;;;;;0.73;0.57;;;;;;;;;;4953090;29;20218;-76
2022/03/04 03:02:41;;;;;;;2.03;1.87;;;;;;;;;;4953161;29;20206;-75
2022/03/04 03:05:09;;;;;;;2.43;2.23;;;;;;;;;;4953020;28;20723;-76
2022/03/04 03:07:37;;;;;;;0.63;0.63;;;;;;;;;;4952154;28;20775;-75
2022/03/04 03:10:04;;;;;;;0.00;0.00;;;;;;;;;;4951956;28;20205;-76
2022/03/04 03:12:32;;;;;;;0.00;0.00;;;;;;;;;;4952366;28;20253;-76
2022/03/04 03:15:01;;;;;;;0.30;0.30;;;;;;;;;;4952880;29;20209;-75
2022/03/04 03:17:29;;;;;;;1.70;1.43;;;;;;;;;;4952526;28;20198;-78
2022/03/04 03:19:56;;;;;;;0.63;0.63;;;;;;;;;;4946287;28;20230;-75
2022/03/04 03:22:23;;;;;;;1.07;0.83;;;;;;;;;;4945529;28;20199;-75
2022/03/04 03:24:51;;;;;;;0.07;0.07;;;;;;;;;;4942284;28;20214;-71
2022/03/04 03:27:19;;;;;;;0.50;0.50;;;;;;;;;;4948645;28;20262;-77
2022/03/04 03:29:46;;;;;;;0.00;0.00;;;;;;;;;;4952764;28;20206;-76
2022/03/04 03:32:15;;;;;;;5.23;4.37;;;;;;;;;;4952473;28;20199;-75
2022/03/04 03:34:43;;;;;;;4.80;2.73;;;;;;;;;;4956570;28;20543;-76
2022/03/04 03:37:11;;;;;;;0.00;0.00;;;;;;;;;;4953412;28;20202;-74
2022/03/04 03:39:38;;;;;;;0.00;0.00;;;;;;;;;;4951380;28;20673;-75
2022/03/04 03:42:07;;;;;;;0.67;0.67;;;;;;;;;;4952861;29;20214;-76
2022/03/04 03:44:35;;;;;;;0.83;0.50;;;;;;;;;;4952741;29;20242;-77
2022/03/04 03:47:02;;;;;;;0.00;0.00;;;;;;;;;;4952097;28;20258;-76
2022/03/04 03:49:31;;;;;;;0.00;0.00;;;;;;;;;;4952264;28;20203;-74
2022/03/04 03:51:58;;;;;;;0.00;0.00;;;;;;;;;;4952693;29;20222;-75
2022/03/04 03:54:26;;;;;;;0.00;0.00;;;;;;;;;;4941110;28;20231;-77
2022/03/04 03:56:53;;;;;;;0.00;0.00;;;;;;;;;;4949953;29;20207;-77
2022/03/04 03:59:21;;;;;;;0.10;0.10;;;;;;;;;;4948869;29;20566;-75
2022/03/04 04:01:48;;;;;;;0.10;0.10;;;;;;;;;;4950669;28;20222;-75
2022/03/04 04:04:17;;;;;;;0.77;0.37;;;;;;;;;;4952795;29;20559;-75
2022/03/04 04:06:46;;;;;;;0.70;0.70;;;;;;;;;;4951573;28;20662;-74
2022/03/04 04:09:13;;;;;;;0.40;0.40;;;;;;;;;;4947638;28;20203;-76
2022/03/04 04:11:41;;;;;;;0.33;0.33;;;;;;;;;;4952117;28;20580;-77
2022/03/04 04:14:09;;;;;;;0.20;0.20;;;;;;;;;;4952755;29;20200;-76
2022/03/04 04:16:37;;;;;;;1.07;0.53;;;;;;;;;;4952255;28;20239;-76
2022/03/04 04:19:05;;;;;;;1.40;0.70;;;;;;;;;;4950018;29;20302;-76
2022/03/04 04:21:34;;;;;;;1.30;0.93;;;;;;;;;;4951973;28;20214;-76
2022/03/04 04:24:03;;;;;;;0.10;0.10;;;;;;;;;;4952367;28;20579;-75
2022/03/04 04:26:31;;;;;;;1.20;1.13;;;;;;;;;;4952705;29;20238;-77
2022/03/04 04:28:58;;;;;;;0.00;0.00;;;;;;;;;;4956004;29;20628;-76
2022/03/04 04:31:26;;;;;;;0.20;0.20;;;;;;;;;;4955496;28;20199;-76
2022/03/04 04:33:53;;;;;;;0.43;0.27;;;;;;;;;;4955297;29;20294;-75
2022/03/04 04:36:21;;;;;;;0.33;0.33;;;;;;;;;;4955925;29;20199;-78
2022/03/04 04:38:49;;;;;;;0.00;0.00;;;;;;;;;;4954255;28;20652;-76
2022/03/04 04:41:18;;;;;;;2.47;1.20;;;;;;;;;;4954900;28;20211;-76
2022/03/04 04:43:45;;;;;;;0.67;0.67;;;;;;;;;;4955787;29;20195;-76
2022/03/04 04:46:13;;;;;;;0.77;0.77;;;;;;;;;;4954809;28;20215;-77
2022/03/04 04:48:40;;;;;;;3.00;1.10;;;;;;;;;;4954066;28;20284;-74
2022/03/04 04:51:08;;;;;;;0.00;0.00;;;;;;;;;;4954596;28;20249;-75
2022/03/04 04:53:35;;;;;;;0.00;0.00;;;;;;;;;;4954950;28;20245;-74
2022/03/04 04:56:03;;;;;;;0.00;0.00;;;;;;;;;;4955485;29;20660;-75
2022/03/04 04:58:31;;;;;;;0.43;0.43;;;;;;;;;;4955252;29;20218;-74
2022/03/04 05:00:59;;;;;;;0.00;0.00;;;;;;;;;;4954199;28;20213;-74
2022/03/04 05:03:27;;;;;;;0.00;0.00;;;;;;;;;;4955106;28;20563;-77
2022/03/04 05:05:55;;;;;;;0.00;0.00;;;;;;;;;;4955186;29;20211;-77
2022/03/04 05:08:24;;;;;;;0.00;0.00;;;;;;;;;;4953236;28;20256;-73
2022/03/04 05:10:51;;;;;;;0.00;0.00;;;;;;;;;;4952917;28;20211;-75
2022/03/04 05:13:19;;;;;;;0.73;0.47;;;;;;;;;;4954956;28;20205;-77
2022/03/04 05:15:48;;;;;;;0.00;0.00;;;;;;;;;;4955253;28;20208;-76
2022/03/04 05:18:15;;;;;;;0.00;0.00;;;;;;;;;;4955167;28;20203;-76
2022/03/04 05:20:43;;;;;;;2.30;2.20;;;;;;;;;;4954572;28;20207;-78
2022/03/04 05:23:11;;;;;;;0.57;0.57;;;;;;;;;;4951440;28;20664;-75
2022/03/04 05:25:39;;;;;;;0.00;0.00;;;;;;;;;;4953800;28;20209;-78
2022/03/04 05:28:07;;;;;;;0.00;0.00;;;;;;;;;;4955031;29;20238;-76
2022/03/04 05:30:34;;;;;;;0.47;0.33;;;;;;;;;;4953165;28;20207;-75
2022/03/04 05:33:03;;;;;;;0.57;0.57;;;;;;;;;;4954970;29;20199;-75
2022/03/04 05:35:31;;;;;;;0.00;0.00;;;;;;;;;;4954266;28;20566;-74
2022/03/04 05:37:58;;;;;;;0.00;0.00;;;;;;;;;;4954873;29;20206;-75
2022/03/04 05:40:25;;;;;;;4.73;2.60;;;;;;;;;;4953848;28;20199;-75
2022/03/04 05:42:53;;;;;;;0.90;0.83;;;;;;;;;;4954959;28;20203;-76
2022/03/04 05:45:21;;;;;;;2.90;1.30;;;;;;;;;;4953484;28;20210;-76
2022/03/04 05:47:50;;;;;;;0.10;0.10;;;;;;;;;;4954037;28;20321;-76
2022/03/04 05:50:19;;;;;;;0.43;0.43;;;;;;;;;;4954007;28;20572;-75
2022/03/04 05:52:47;;;;;;;0.10;0.10;;;;;;;;;;4954331;29;20223;-75
2022/03/04 05:55:16;;;;;;;1.90;1.33;;;;;;;;;;4952734;28;20322;-76
2022/03/04 05:57:43;;;;;;;0.00;0.00;;;;;;;;;;4954159;28;20245;-76
2022/03/04 06:00:12;;;;;;;0.23;0.23;;;;;;;;;;4952360;28;20203;-76
2022/03/04 06:02:39;;;;;;;0.17;0.17;;;;;;;;;;4954412;29;20214;-76
2022/03/04 06:05:08;;;;;;;0.87;0.53;;;;;;;;;;4954157;29;20289;-75
2022/03/04 06:07:36;;;;;;;1.97;1.87;;;;;;;;;;4954797;29;20237;-75
2022/03/04 06:10:04;;;;;;;1.47;1.20;;;;;;;;;;4955114;28;20290;-76
2022/03/04 06:12:32;;;;;;;1.80;1.70;;;;;;;;;;4954191;28;20201;-74
2022/03/04 06:14:59;;;;;;;1.40;1.17;;;;;;;;;;4952929;28;20206;-76
2022/03/04 06:17:27;;;;;;;1.27;0.43;;;;;;;;;;4953850;29;20205;-75
2022/03/04 06:19:54;;;;;;;0.10;0.10;;;;;;;;;;4953123;28;20282;-76
2022/03/04 06:22:22;;;;;;;0.97;0.43;;;;;;;;;;4950113;28;20218;-76
2022/03/04 06:24:51;;;;;;;3.90;3.60;;;;;;;;;;4952562;28;20210;-73
2022/03/04 06:27:19;;;;;;;0.00;0.00;;;;;;;;;;4953968;28;20345;-76
2022/03/04 06:29:46;;;;;;;0.20;0.20;;;;;;;;;;4953713;28;20206;-74
2022/03/04 06:32:15;;;;;;;0.30;0.30;;;;;;;;;;4954018;29;20210;-75
2022/03/04 06:34:42;;;;;;;0.27;0.27;;;;;;;;;;4953819;29;20563;-75
2022/03/04 06:37:11;;;;;;;2.70;1.70;;;;;;;;;;4951834;28;20595;-76
2022/03/04 06:39:39;;;;;;;4.33;2.97;;;;;;;;;;4953253;28;20195;-75
2022/03/04 06:42:08;;;;;;;2.43;2.07;;;;;;;;;;4953860;29;20203;-77
2022/03/04 06:44:35;;;;;;;2.10;1.03;;;;;;;;;;4953319;28;20214;-76
2022/03/04 06:47:03;;;;;;;0.10;0.10;;;;;;;;;;4950714;28;20227;-75
2022/03/04 06:49:30;;;;;;;1.27;1.20;;;;;;;;;;4952371;28;20203;-75
2022/03/04 06:51:58;;;;;;;5.13;3.10;;;;;;;;;;4951438;28;20298;-76
2022/03/04 06:54:26;;;;;;;0.67;0.47;;;;;;;;;;4953851;28;20234;-77
2022/03/04 06:56:54;;;;;;;2.00;1.87;;;;;;;;;;4960467;28;20242;-76
2022/03/04 06:59:23;;;;;;;0.00;0.00;;;;;;;;;;4956399;29;20202;-76
2022/03/04 07:01:50;;;;;;;1.33;0.80;;;;;;;;;;4952439;28;20207;-75
2022/03/04 07:04:18;;;;;;;1.30;0.27;;;;;;;;;;4952997;28;20680;-75
2022/03/04 07:06:45;;;;;;;0.20;0.20;;;;;;;;;;4952959;28;20679;-76
2022/03/04 07:09:12;;;;;;;0.77;0.77;;;;;;;;;;4953217;29;20265;-77
2022/03/04 07:11:40;;;;;;;1.90;1.20;;;;;;;;;;4952660;28;20202;-77
2022/03/04 07:14:07;;;;;;;0.63;0.60;;;;;;;;;;4952098;28;20672;-75
2022/03/04 07:16:37;;;;;;;0.87;0.87;;;;;;;;;;4946103;28;20558;-74
2022/03/04 07:19:04;;;;;;;0.00;0.00;;;;;;;;;;4951527;28;20258;-77
2022/03/04 07:21:32;;;;;;;0.00;0.00;;;;;;;;;;4949199;28;20202;-76
2022/03/04 07:23:59;;;;;;;0.73;0.73;;;;;;;;;;4952856;29;20566;-77
2022/03/04 07:26:27;;;;;;;2.17;1.67;;;;;;;;;;4952805;29;20195;-77
2022/03/04 07:28:54;;;;;;;0.00;0.00;;;;;;;;;;4952666;28;20234;-77
2022/03/04 07:31:22;;;;;;;0.10;0.10;;;;;;;;;;4951367;28;20202;-77
2022/03/04 07:33:50;;;;;;;1.67;0.87;;;;;;;;;;4953257;28;20211;-74
2022/03/04 07:36:19;;;;;;;2.10;1.77;;;;;;;;;;4953259;29;20209;-77
2022/03/04 07:38:46;;;;;;;0.47;0.47;;;;;;;;;;4953232;29;20217;-77
2022/03/04 07:41:14;;;;;;;3.57;2.10;;;;;;;;;;4952074;28;20199;-77
2022/03/04 07:43:41;;;;;;;0.43;0.43;;;;;;;;;;4953178;29;20205;-76
2022/03/04 07:46:09;;;;;;;0.53;0.53;;;;;;;;;;4952266;28;20261;-76
2022/03/04 07:48:36;;;;;;;1.63;1.53;;;;;;;;;;4948534;28;20250;-75
2022/03/04 07:51:05;;;;;;;2.87;2.63;;;;;;;;;;4960888;28;20210;-76
2022/03/04 07:53:33;;;;;;;0.40;0.40;;;;;;;;;;4967138;28;20273;-74
2022/03/04 07:56:00;;;;;;;0.20;0.20;;;;;;;;;;4947336;28;20202;-77
2022/03/04 07:58:28;;;;;;;1.30;1.17;;;;;;;;;;4963217;28;21029;-74
2022/03/04 08:00:55;;;;;;;0.63;0.63;;;;;;;;;;4961066;28;20294;-75
2022/03/04 08:03:22;;;;;;;0.00;0.00;;;;;;;;;;4951908;28;20217;-74
2022/03/04 08:05:50;;;;;;;2.20;2.10;;;;;;;;;;4944547;29;20207;-76
2022/03/04 08:08:19;;;;;;;0.20;0.20;;;;;;;;;;4947341;29;20310;-75
2022/03/04 08:10:46;;;;;;;0.10;0.10;;;;;;;;;;4946145;29;20697;-77
2022/03/04 08:13:13;;;;;;;1.23;0.63;;;;;;;;;;4948422;29;20204;-75
2022/03/04 08:15:41;;;;;;;0.60;0.60;;;;;;;;;;4945444;28;20608;-74
2022/03/04 08:18:08;;;;;;;3.20;2.23;;;;;;;;;;4946584;28;21591;-76
2022/03/04 08:20:36;;;;;;;0.20;0.20;;;;;;;;;;4952486;29;20294;-76
2022/03/04 08:23:03;;;;;;;6.90;4.10;;;;;;;;;;4950277;29;20294;-76
2022/03/04 08:25:32;;;;;;;3.27;1.57;;;;;;;;;;4946645;29;20287;-75
2022/03/04 08:28:00;;;;;;;6.13;3.57;;;;;;;;;;4936656;28;20238;-77
2022/03/04 08:30:27;;;;;;;0.40;0.40;;;;;;;;;;4948091;28;20242;-75
2022/03/04 08:32:54;;;;;;;2.37;0.97;;;;;;;;;;4945506;28;20557;-76
2022/03/04 08:35:22;;;;;;;3.47;1.43;;;;;;;;;;4943518;28;20199;-75
2022/03/04 08:37:49;;;;;;;0.83;0.43;;;;;;;;;;4943200;28;20215;-74
2022/03/04 08:40:17;;;;;;;0.00;0.00;;;;;;;;;;4947264;28;20207;-76
2022/03/04 08:42:45;;;;;;;0.03;0.03;;;;;;;;;;4947304;29;20677;-76
2022/03/04 08:45:14;;;;;;;0.53;0.53;;;;;;;;;;4947426;28;20677;-75
2022/03/04 08:47:43;;;;;;;0.00;0.00;;;;;;;;;;4948337;28;20234;-77
2022/03/04 08:50:11;;;;;;;5.67;2.07;;;;;;;;;;4952448;28;20203;-76
2022/03/04 08:55:20;;;;;;;1.80;1.47;;;;;;;;;;4913029;29;20232;-76
2022/03/04 08:57:49;;;;;;;0.57;0.50;;;;;;;;;;4933120;29;20211;-76
2022/03/04 09:00:18;;;;;;;0.87;0.87;;;;;;;;;;4924616;29;20200;-74
2022/03/04 09:02:45;;;;;;;1.17;1.07;;;;;;;;;;4910931;29;20980;-74
2022/03/04 09:05:13;;;;;;;2.10;2.00;;;;;;;;;;4905470;29;20208;-74
2022/03/04 09:07:40;;;;;;;1.63;1.40;;;;;;;;;;4894259;29;20478;-74
2022/03/04 09:10:08;;;;;;;0.33;0.33;;;;;;;;;;4893056;29;20217;-74
2022/03/04 09:12:36;;;;;;;2.10;1.13;;;;;;;;;;4896800;29;20209;-74
2022/03/04 09:15:07;;;;;;;2.47;2.27;;;;;;;;;;4897804;29;20582;-75
2022/03/04 09:17:34;;;;;;;1.17;1.03;;;;;;;;;;4893645;29;20320;-75
2022/03/04 09:20:02;;;;;;;0.10;0.10;;;;;;;;;;4895667;29;20225;-73
2022/03/04 09:22:30;;;;;;;0.53;0.23;;;;;;;;;;4893220;29;20244;-73
2022/03/04 09:24:57;;;;;;;1.77;1.67;;;;;;;;;;4893766;29;20641;-74
2022/03/04 09:27:25;;;;;;;0.20;0.20;;;;;;;;;;4933286;28;20223;-74
2022/03/04 09:29:52;;;;;;;0.20;0.20;;;;;;;;;;4932693;28;20203;-74
2022/03/04 09:32:21;;;;;;;5.93;2.77;;;;;;;;;;4933471;28;20206;-73
2022/03/04 09:34:48;;;;;;;5.83;2.77;;;;;;;;;;4935526;28;20250;-75
2022/03/04 09:37:16;;;;;;;2.87;0.77;;;;;;;;;;4938136;28;20676;-76
2022/03/04 09:39:43;;;;;;;0.77;0.77;;;;;;;;;;4933189;28;20806;-74
2022/03/04 09:42:10;;;;;;;0.57;0.57;;;;;;;;;;4934963;28;20199;-75
2022/03/04 09:44:38;;;;;;;6.20;2.80;;;;;;;;;;4933421;28;20199;-75
2022/03/04 09:47:06;;;;;;;3.10;1.03;;;;;;;;;;4931426;28;22193;-73
2022/03/04 09:49:37;;;;;;;1.20;1.10;;;;;;;;;;4933652;28;20227;-73
2022/03/04 09:52:04;;;;;;;2.40;1.43;;;;;;;;;;4937328;28;20211;-75
2022/03/04 09:54:32;;;;;;;1.03;0.93;;;;;;;;;;4935568;28;20242;-75
2022/03/04 09:57:00;;;;;;;2.30;1.33;;;;;;;;;;4930337;28;20783;-75
2022/03/04 09:59:27;;;;;;;3.60;1.70;;;;;;;;;;4926428;28;20214;-75
2022/03/04 10:01:55;;;;;;;2.57;1.60;;;;;;;;;;4927010;28;20210;-75
2022/03/04 10:04:27;;;;;;;1.27;1.27;;;;;;;;;;4928974;28;20937;-72
2022/03/04 10:06:56;;;;;;;0.67;0.67;;;;;;;;;;4928791;28;20219;-73
2022/03/04 10:09:42;;;;;;;2.30;2.10;;;;;;;;;;4927325;28;20599;-74
2022/03/04 10:12:10;;;;;;;4.03;2.13;;;;;;;;;;4925825;28;20207;-74
2022/03/04 10:14:56;;;;;;;2.43;2.23;;;;;;;;;;4925054;28;20633;-75
2022/03/04 10:17:24;;;;;;;0.17;0.17;;;;;;;;;;4921579;28;20215;-74
2022/03/04 10:19:53;;;;;;;0.37;0.37;;;;;;;;;;4922921;28;20289;-73
2022/03/04 10:22:22;;;;;;;0.30;0.30;;;;;;;;;;4925694;28;20681;-74
2022/03/04 10:24:50;;;;;;;0.43;0.30;;;;;;;;;;4928523;28;20227;-74
2022/03/04 10:27:18;;;;;;;0.33;0.33;;;;;;;;;;4929539;28;20215;-73
2022/03/04 10:29:46;;;;;;;2.73;1.30;;;;;;;;;;4928326;28;20237;-74
2022/03/04 10:32:15;;;;;;;2.20;1.10;;;;;;;;;;4928043;28;20203;-74
2022/03/04 10:34:46;;;;;;;1.67;1.57;;;;;;;;;;4925877;28;20329;-74
2022/03/04 10:37:14;;;;;;;1.57;1.50;;;;;;;;;;4924052;28;20211;-74
2022/03/04 10:39:56;;;;;;;3.80;2.60;;;;;;;;;;4924490;28;20207;-74
2022/03/04 10:42:38;;;;;;;0.30;0.30;;;;;;;;;;4932507;28;20203;-74
2022/03/04 10:45:07;;;;;;;0.20;0.20;;;;;;;;;;4929752;28;20225;-74
2022/03/04 10:47:42;;;;;;;0.10;0.10;;;;;;;;;;4934806;28;20226;-73
2022/03/04 10:50:09;;;;;;;4.53;1.93;;;;;;;;;;4943652;29;20231;-74
2022/03/04 10:52:48;;;;;;;0.23;0.23;;;;;;;;;;4944351;28;20646;-74
2022/03/04 10:55:25;;;;;;;0.17;0.17;;;;;;;;;;4943840;29;20242;-76
2022/03/04 10:57:55;;;;;;;6.80;4.93;;;;;;;;;;4946994;29;20698;-76
2022/03/04 11:00:26;;;;;;;0.20;0.20;;;;;;;;;;4948486;29;20207;-76
2022/03/04 11:02:54;;;;;;;1.33;1.23;;;;;;;;;;4939770;29;20203;-77
2022/03/04 11:05:22;;;;;;;1.50;1.40;;;;;;;;;;4936221;29;20289;-77
2022/03/04 11:07:51;;;;;;;1.07;1.07;;;;;;;;;;4936885;29;20206;-73
2022/03/04 11:10:18;;;;;;;0.50;0.50;;;;;;;;;;4940746;29;20873;-75
2022/03/04 11:12:50;;;;;;;0.97;0.70;;;;;;;;;;4934877;29;20290;-75
2022/03/04 11:15:19;;;;;;;2.30;1.97;;;;;;;;;;4938300;29;20210;-76
2022/03/04 11:17:47;;;;;;;2.30;1.63;;;;;;;;;;4934990;29;20198;-74
2022/03/04 11:20:15;;;;;;;3.93;0.97;;;;;;;;;;4937048;29;20306;-75
2022/03/04 11:22:43;;;;;;;3.40;0.67;;;;;;;;;;4936221;29;20207;-76
2022/03/04 11:25:12;;;;;;;2.70;2.53;;;;;;;;;;4935307;28;20667;-75
2022/03/04 11:27:42;;;;;;;2.10;1.80;;;;;;;;;;4936891;29;20199;-74
2022/03/04 11:30:28;;;;;;;3.17;2.40;;;;;;;;;;4935163;28;20238;-75
2022/03/04 11:33:00;;;;;;;4.73;2.33;;;;;;;;;;4936068;28;20203;-77
2022/03/04 11:35:47;;;;;;;0.00;0.00;;;;;;;;;;4940030;29;20202;-78
2022/03/04 11:38:14;;;;;;;0.00;0.00;;;;;;;;;;4940613;28;20203;-76
2022/03/04 11:40:51;;;;;;;2.00;1.80;;;;;;;;;;4929905;29;20553;-76
2022/03/04 11:43:19;;;;;;;4.07;0.60;;;;;;;;;;4930067;28;20202;-76
2022/03/04 11:46:03;;;;;;;0.00;0.00;;;;;;;;;;4930797;28;20205;-73
2022/03/04 11:48:31;;;;;;;1.30;1.20;;;;;;;;;;4928054;28;20293;-74
2022/03/04 11:50:58;;;;;;;1.90;1.00;;;;;;;;;;4929607;28;20253;-75
2022/03/04 11:53:26;;;;;;;2.13;0.73;;;;;;;;;;4929422;28;20891;-73
2022/03/04 11:56:12;;;;;;;0.83;0.83;;;;;;;;;;4930733;28;20209;-73
2022/03/04 11:58:58;;;;;;;1.60;1.50;;;;;;;;;;4930355;29;21432;-74
2022/03/04 12:01:29;;;;;;;0.60;0.60;;;;;;;;;;4929847;28;20218;-76
2022/03/04 12:04:07;;;;;;;3.20;1.53;;;;;;;;;;4927633;28;20252;-73
2022/03/04 12:06:34;;;;;;;0.47;0.43;;;;;;;;;;4930979;28;20278;-76
2022/03/04 12:09:16;;;;;;;2.43;2.23;;;;;;;;;;4929196;28;20219;-74
2022/03/04 12:11:58;;;;;;;1.33;1.20;;;;;;;;;;4928767;28;20582;-76
2022/03/04 12:14:26;;;;;;;0.10;0.10;;;;;;;;;;4928458;28;20210;-75
2022/03/04 12:16:57;;;;;;;0.97;0.97;;;;;;;;;;4930572;28;20203;-73
2022/03/04 12:19:31;;;;;;;3.37;3.07;;;;;;;;;;4935177;28;20211;-74
2022/03/04 12:21:58;;;;;;;7.00;1.70;;;;;;;;;;4932697;28;20659;-74
2022/03/04 12:24:30;;;;;;;0.20;0.20;;;;;;;;;;4938031;28;20691;-75
2022/03/04 12:26:57;;;;;;;0.27;0.27;;;;;;;;;;4939319;29;20577;-75
2022/03/04 12:29:42;;;;;;;4.73;2.37;;;;;;;;;;4936741;28;20227;-74
2022/03/04 12:32:11;;;;;;;0.00;0.00;;;;;;;;;;4928520;28;20207;-74
2022/03/04 12:34:42;;;;;;;1.37;1.27;;;;;;;;;;4928811;28;20211;-74
2022/03/04 12:37:14;;;;;;;0.50;0.50;;;;;;;;;;4928655;28;20195;-73
2022/03/04 12:39:46;;;;;;;10.63;3.37;;;;;;;;;;4929684;28;20222;-72
2022/03/04 12:42:14;;;;;;;0.50;0.50;;;;;;;;;;4933076;28;20673;-74
2022/03/04 12:44:42;;;;;;;0.83;0.83;;;;;;;;;;4928077;28;20216;-73
2022/03/04 12:47:11;;;;;;;4.57;2.50;;;;;;;;;;4928072;28;20203;-72
2022/03/04 12:49:42;;;;;;;1.60;1.50;;;;;;;;;;4929820;28;20590;-73
2022/03/04 12:52:10;;;;;;;1.93;1.83;;;;;;;;;;4929027;28;20230;-74
2022/03/04 12:54:37;;;;;;;4.35;2.15;;;;;;;;;;4926389;28;21274;-75
2022/03/04 12:57:05;;;;;;;0.25;0.25;;;;;;;;;;4933430;28;20210;-74
2022/03/04 12:59:43;;;;;;;4.32;1.75;;;;;;;;;;4933822;28;20509;-73
2022/03/04 13:02:12;;;;;;;1.30;1.20;;;;;;;;;;4936378;28;20576;-75
2022/03/04 13:04:40;;;;;;;0.00;0.00;;;;;;;;;;4935892;28;20218;-75
2022/03/04 13:07:07;;;;;;;1.83;1.67;;;;;;;;;;4933633;29;20205;-70
2022/03/04 13:09:34;;;;;;;3.85;2.55;;;;;;;;;;4925353;28;20219;-72
2022/03/04 13:12:08;;;;;;;3.40;1.85;;;;;;;;;;4934418;28;20210;-71
2022/03/04 13:14:35;;;;;;;3.13;2.83;;;;;;;;;;4932588;28;20204;-73
2022/03/04 13:17:03;;;;;;;1.60;1.27;;;;;;;;;;4931922;28;20662;-73
2022/03/04 13:19:37;;;;;;;2.17;2.05;;;;;;;;;;4938404;28;20202;-73
2022/03/04 13:22:06;;;;;;;1.15;1.10;;;;;;;;;;4932158;28;20714;-74
2022/03/04 13:24:34;;;;;;;0.98;0.98;;;;;;;;;;4936008;28;20661;-73
2022/03/04 13:27:04;;;;;;;0.32;0.32;;;;;;;;;;4933716;28;20906;-74
2022/03/04 13:29:34;;;;;;;2.92;2.00;;;;;;;;;;4935034;28;20226;-75
2022/03/04 13:32:05;;;;;;;1.63;1.60;;;;;;;;;;4931811;28;20296;-71
2022/03/04 13:34:34;;;;;;;1.98;1.83;;;;;;;;;;4934658;28;20219;-75
2022/03/04 13:37:06;;;;;;;5.70;2.78;;;;;;;;;;4933771;28;20214;-75
2022/03/04 13:39:34;;;;;;;1.20;1.13;;;;;;;;;;4937224;28;20553;-73
2022/03/04 13:42:16;;;;;;;2.72;2.53;;;;;;;;;;4931181;28;20207;-72
2022/03/04 13:45:04;;;;;;;0.00;0.00;;;;;;;;;;4932583;28;20203;-72
2022/03/04 13:47:32;;;;;;;1.42;1.33;;;;;;;;;;4926574;28;20203;-73
2022/03/04 13:50:02;;;;;;;3.00;2.72;;;;;;;;;;4930157;28;20354;-72
2022/03/04 13:52:30;;;;;;;0.10;0.03;;;;;;;;;;4930168;28;20206;-72
2022/03/04 13:55:01;;;;;;;1.13;0.55;;;;;;;;;;4932933;28;20738;-76
2022/03/04 13:57:32;;;;;;;1.02;0.68;;;;;;;;;;4928314;28;20199;-73
2022/03/04 14:00:01;;;;;;;2.40;2.25;;;;;;;;;;4928292;28;20668;-69
2022/03/04 14:02:29;;;;;;;3.90;1.80;;;;;;;;;;4931493;28;21664;-74
2022/03/04 14:04:57;;;;;;;2.20;2.08;;;;;;;;;;4925032;28;20588;-74
2022/03/04 14:07:26;;;;;;;1.38;1.38;;;;;;;;;;4929503;29;20207;-73
2022/03/04 14:09:55;;;;;;;3.40;3.10;;;;;;;;;;4927707;28;20233;-75
2022/03/04 14:12:23;;;;;;;0.00;0.00;;;;;;;;;;4925033;28;20202;-72
2022/03/04 14:14:51;;;;;;;6.05;5.47;;;;;;;;;;4926897;28;20218;-76
2022/03/04 14:17:18;;;;;;;1.00;0.80;;;;;;;;;;4929587;28;20569;-75
2022/03/04 14:19:46;;;;;;;1.45;0.45;;;;;;;;;;4927693;28;20207;-76
2022/03/04 14:22:13;;;;;;;1.58;1.48;;;;;;;;;;4924733;28;20206;-76
2022/03/04 14:24:42;;;;;;;5.32;1.35;;;;;;;;;;4928432;28;20204;-77
2022/03/04 14:27:09;;;;;;;1.60;1.50;;;;;;;;;;4926998;29;20664;-76
2022/03/04 14:29:37;;;;;;;1.05;0.88;;;;;;;;;;4927766;28;20239;-76
2022/03/04 14:32:04;;;;;;;3.77;3.40;;;;;;;;;;4926375;28;20579;-76
2022/03/04 14:34:32;;;;;;;0.53;0.53;;;;;;;;;;4928305;28;20203;-76
2022/03/04 14:36:59;;;;;;;0.37;0.37;;;;;;;;;;4925508;28;20629;-76
2022/03/04 14:39:26;;;;;;;2.20;1.93;;;;;;;;;;4927066;28;20579;-74
2022/03/04 14:41:55;;;;;;;0.77;0.77;;;;;;;;;;4929153;28;20522;-73
2022/03/04 14:44:22;;;;;;;4.43;4.07;;;;;;;;;;4928266;28;20657;-72
2022/03/04 14:46:50;;;;;;;0.30;0.30;;;;;;;;;;4925975;28;20249;-76
2022/03/04 14:49:18;;;;;;;2.17;1.17;;;;;;;;;;4930928;29;21686;-76
2022/03/04 14:51:47;;;;;;;1.70;1.60;;;;;;;;;;4929176;28;20269;-73
2022/03/04 14:54:14;;;;;;;1.80;0.77;;;;;;;;;;4923583;28;20369;-75